sensor_id;sensor_type;location;lat;lon;timestamp;temperature;humidity
8792;DHT22;4432;50.890;4.744;2023-04-15T00:01:24;7.90;99.90
8792;DHT22;4432;50.890;4.744;2023-04-15T00:03:52;8.00;99.90
8792;DHT22;4432;50.890;4.744;2023-04-15T00:06:22;8.00;99.90
8792;DHT22;4432;50.890;4.744;2023-04-15T00:08:48;8.00;99.90
8792;DHT22;4432;50.890;4.744;2023-04-15T00:11:15;8.00;99.90
8792;DHT22;4432;50.890;4.744;2023-04-15T00:13:41;8.10;99.90
8792;DHT22;4432;50.890;4.744;2023-04-15T00:16:08;8.10;99.90
8792;DHT22;4432;50.890;4.744;2023-04-15T00:18:34;8.10;99.90
8792;DHT22;4432;50.890;4.744;2023-04-15T00:21:01;8.10;99.90
8792;DHT22;4432;50.890;4.744;2023-04-15T00:23:27;8.10;99.90
8792;DHT22;4432;50.890;4.744;2023-04-15T00:25:53;8.20;99.90
8792;DHT22;4432;50.890;4.744;2023-04-15T00:28:19;8.20;99.90
8792;DHT22;4432;50.890;4.744;2023-04-15T00:30:45;8.20;99.90
8792;DHT22;4432;50.890;4.744;2023-04-15T00:33:12;8.20;99.90
8792;DHT22;4432;50.890;4.744;2023-04-15T00:35:38;8.20;99.90
8792;DHT22;4432;50.890;4.744;2023-04-15T00:38:05;8.20;99.90
8792;DHT22;4432;50.890;4.744;2023-04-15T00:40:32;8.20;99.90
8792;DHT22;4432;50.890;4.744;2023-04-15T00:42:59;8.20;99.90
8792;DHT22;4432;50.890;4.744;2023-04-15T00:45:25;8.20;99.90
8792;DHT22;4432;50.890;4.744;2023-04-15T00:47:52;8.20;99.90
8792;DHT22;4432;50.890;4.744;2023-04-15T00:50:18;8.20;99.90
8792;DHT22;4432;50.890;4.744;2023-04-15T00:52:44;8.20;99.90
8792;DHT22;4432;50.890;4.744;2023-04-15T00:55:10;8.20;99.90
8792;DHT22;4432;50.890;4.744;2023-04-15T00:57:36;8.20;99.90
8792;DHT22;4432;50.890;4.744;2023-04-15T01:00:03;8.20;99.90
8792;DHT22;4432;50.890;4.744;2023-04-15T01:02:30;8.10;99.90
8792;DHT22;4432;50.890;4.744;2023-04-15T01:04:57;8.20;99.90
8792;DHT22;4432;50.890;4.744;2023-04-15T01:07:22;8.20;99.90
8792;DHT22;4432;50.890;4.744;2023-04-15T01:09:48;8.20;99.90
8792;DHT22;4432;50.890;4.744;2023-04-15T01:12:15;8.30;99.90
8792;DHT22;4432;50.890;4.744;2023-04-15T01:14:41;8.30;99.90
8792;DHT22;4432;50.890;4.744;2023-04-15T01:17:07;8.30;99.90
8792;DHT22;4432;50.890;4.744;2023-04-15T01:19:33;8.30;99.90
8792;DHT22;4432;50.890;4.744;2023-04-15T01:22:02;8.30;99.90
8792;DHT22;4432;50.890;4.744;2023-04-15T01:24:29;8.30;99.90
8792;DHT22;4432;50.890;4.744;2023-04-15T01:26:56;8.30;99.90
8792;DHT22;4432;50.890;4.744;2023-04-15T01:29:22;8.30;99.90
8792;DHT22;4432;50.890;4.744;2023-04-15T01:31:54;8.30;99.90
8792;DHT22;4432;50.890;4.744;2023-04-15T01:34:20;8.30;99.90
8792;DHT22;4432;50.890;4.744;2023-04-15T01:36:47;8.30;99.90
8792;DHT22;4432;50.890;4.744;2023-04-15T01:39:13;8.30;99.90
8792;DHT22;4432;50.890;4.744;2023-04-15T01:41:39;8.30;99.90
8792;DHT22;4432;50.890;4.744;2023-04-15T01:44:05;8.30;99.90
8792;DHT22;4432;50.890;4.744;2023-04-15T01:46:31;8.30;99.90
8792;DHT22;4432;50.890;4.744;2023-04-15T01:48:57;8.30;99.90
8792;DHT22;4432;50.890;4.744;2023-04-15T01:51:23;8.40;99.90
8792;DHT22;4432;50.890;4.744;2023-04-15T01:53:49;8.40;99.90
8792;DHT22;4432;50.890;4.744;2023-04-15T01:56:14;8.40;99.90
8792;DHT22;4432;50.890;4.744;2023-04-15T01:58:40;8.40;99.90
8792;DHT22;4432;50.890;4.744;2023-04-15T02:01:06;8.40;99.90
8792;DHT22;4432;50.890;4.744;2023-04-15T02:03:32;8.40;99.90
8792;DHT22;4432;50.890;4.744;2023-04-15T02:05:58;8.40;99.90
8792;DHT22;4432;50.890;4.744;2023-04-15T02:08:24;8.50;99.90
8792;DHT22;4432;50.890;4.744;2023-04-15T02:10:49;8.60;99.90
8792;DHT22;4432;50.890;4.744;2023-04-15T02:13:15;8.60;99.90
8792;DHT22;4432;50.890;4.744;2023-04-15T02:15:46;8.50;99.90
8792;DHT22;4432;50.890;4.744;2023-04-15T02:18:13;8.40;99.90
8792;DHT22;4432;50.890;4.744;2023-04-15T02:20:39;8.30;99.90
8792;DHT22;4432;50.890;4.744;2023-04-15T02:23:04;8.40;99.90
8792;DHT22;4432;50.890;4.744;2023-04-15T02:25:31;8.40;99.90
8792;DHT22;4432;50.890;4.744;2023-04-15T02:27:57;8.30;99.90
8792;DHT22;4432;50.890;4.744;2023-04-15T02:30:23;8.20;99.90
8792;DHT22;4432;50.890;4.744;2023-04-15T02:32:50;8.20;99.90
8792;DHT22;4432;50.890;4.744;2023-04-15T02:35:15;8.30;99.90
8792;DHT22;4432;50.890;4.744;2023-04-15T02:37:44;8.30;99.90
8792;DHT22;4432;50.890;4.744;2023-04-15T02:40:11;8.20;99.90
8792;DHT22;4432;50.890;4.744;2023-04-15T02:42:38;8.20;99.90
8792;DHT22;4432;50.890;4.744;2023-04-15T02:45:05;8.20;99.90
8792;DHT22;4432;50.890;4.744;2023-04-15T02:47:31;8.20;99.90
8792;DHT22;4432;50.890;4.744;2023-04-15T02:49:57;8.20;99.90
8792;DHT22;4432;50.890;4.744;2023-04-15T02:52:25;8.20;99.90
8792;DHT22;4432;50.890;4.744;2023-04-15T02:54:50;8.20;99.90
8792;DHT22;4432;50.890;4.744;2023-04-15T02:57:16;8.20;99.90
8792;DHT22;4432;50.890;4.744;2023-04-15T02:59:42;8.20;99.90
8792;DHT22;4432;50.890;4.744;2023-04-15T03:02:07;8.20;99.90
8792;DHT22;4432;50.890;4.744;2023-04-15T03:04:33;8.20;99.90
8792;DHT22;4432;50.890;4.744;2023-04-15T03:07:01;8.20;99.90
8792;DHT22;4432;50.890;4.744;2023-04-15T03:09:26;8.20;99.90
8792;DHT22;4432;50.890;4.744;2023-04-15T03:11:52;8.20;99.90
8792;DHT22;4432;50.890;4.744;2023-04-15T03:14:19;8.20;99.90
8792;DHT22;4432;50.890;4.744;2023-04-15T03:16:45;8.20;99.90
8792;DHT22;4432;50.890;4.744;2023-04-15T03:19:10;8.20;99.90
8792;DHT22;4432;50.890;4.744;2023-04-15T03:21:36;8.10;99.90
8792;DHT22;4432;50.890;4.744;2023-04-15T03:24:02;8.10;99.90
8792;DHT22;4432;50.890;4.744;2023-04-15T03:26:30;8.20;99.90
8792;DHT22;4432;50.890;4.744;2023-04-15T03:28:56;8.30;99.90
8792;DHT22;4432;50.890;4.744;2023-04-15T03:31:22;8.30;99.90
8792;DHT22;4432;50.890;4.744;2023-04-15T03:33:48;8.20;99.90
8792;DHT22;4432;50.890;4.744;2023-04-15T03:36:14;8.20;99.90
8792;DHT22;4432;50.890;4.744;2023-04-15T03:38:40;8.10;99.90
8792;DHT22;4432;50.890;4.744;2023-04-15T03:41:06;8.00;99.90
8792;DHT22;4432;50.890;4.744;2023-04-15T03:43:32;8.10;99.90
8792;DHT22;4432;50.890;4.744;2023-04-15T03:45:57;8.10;99.90
8792;DHT22;4432;50.890;4.744;2023-04-15T03:48:23;8.00;99.90
8792;DHT22;4432;50.890;4.744;2023-04-15T03:50:49;8.00;99.90
8792;DHT22;4432;50.890;4.744;2023-04-15T03:53:14;7.90;99.90
8792;DHT22;4432;50.890;4.744;2023-04-15T03:55:40;7.90;99.90
8792;DHT22;4432;50.890;4.744;2023-04-15T03:58:06;7.90;99.90
8792;DHT22;4432;50.890;4.744;2023-04-15T04:00:32;7.90;99.90
8792;DHT22;4432;50.890;4.744;2023-04-15T04:02:58;7.90;99.90
8792;DHT22;4432;50.890;4.744;2023-04-15T04:05:23;7.90;99.90
8792;DHT22;4432;50.890;4.744;2023-04-15T04:07:49;7.80;99.90
8792;DHT22;4432;50.890;4.744;2023-04-15T04:10:15;7.80;99.90
8792;DHT22;4432;50.890;4.744;2023-04-15T04:12:40;7.80;99.90
8792;DHT22;4432;50.890;4.744;2023-04-15T04:15:07;7.80;99.90
8792;DHT22;4432;50.890;4.744;2023-04-15T04:17:33;7.90;99.90
8792;DHT22;4432;50.890;4.744;2023-04-15T04:19:58;8.00;99.90
8792;DHT22;4432;50.890;4.744;2023-04-15T04:22:24;8.00;99.90
8792;DHT22;4432;50.890;4.744;2023-04-15T04:24:50;8.00;99.90
8792;DHT22;4432;50.890;4.744;2023-04-15T04:27:16;7.90;99.90
8792;DHT22;4432;50.890;4.744;2023-04-15T04:29:42;7.80;99.90
8792;DHT22;4432;50.890;4.744;2023-04-15T04:32:07;7.80;99.90
8792;DHT22;4432;50.890;4.744;2023-04-15T04:34:33;7.70;99.90
8792;DHT22;4432;50.890;4.744;2023-04-15T04:36:59;7.70;99.90
8792;DHT22;4432;50.890;4.744;2023-04-15T04:39:25;7.70;99.90
8792;DHT22;4432;50.890;4.744;2023-04-15T04:41:50;7.60;99.90
8792;DHT22;4432;50.890;4.744;2023-04-15T04:44:17;7.60;99.90
8792;DHT22;4432;50.890;4.744;2023-04-15T04:46:43;7.70;99.90
8792;DHT22;4432;50.890;4.744;2023-04-15T04:49:08;7.70;99.90
8792;DHT22;4432;50.890;4.744;2023-04-15T04:51:34;7.70;99.90
8792;DHT22;4432;50.890;4.744;2023-04-15T04:54:00;7.70;99.90
8792;DHT22;4432;50.890;4.744;2023-04-15T04:56:26;7.70;99.90
8792;DHT22;4432;50.890;4.744;2023-04-15T04:58:52;7.80;99.90
8792;DHT22;4432;50.890;4.744;2023-04-15T05:01:18;7.80;99.90
8792;DHT22;4432;50.890;4.744;2023-04-15T05:03:44;7.90;99.90
8792;DHT22;4432;50.890;4.744;2023-04-15T05:06:09;7.80;99.90
8792;DHT22;4432;50.890;4.744;2023-04-15T05:08:35;7.80;99.90
8792;DHT22;4432;50.890;4.744;2023-04-15T05:11:02;7.90;99.90
8792;DHT22;4432;50.890;4.744;2023-04-15T05:13:28;7.90;99.90
8792;DHT22;4432;50.890;4.744;2023-04-15T05:15:54;7.90;99.90
8792;DHT22;4432;50.890;4.744;2023-04-15T05:18:21;8.00;99.90
8792;DHT22;4432;50.890;4.744;2023-04-15T05:20:46;8.00;99.90
8792;DHT22;4432;50.890;4.744;2023-04-15T05:23:14;8.00;99.90
8792;DHT22;4432;50.890;4.744;2023-04-15T05:25:40;8.10;99.90
8792;DHT22;4432;50.890;4.744;2023-04-15T05:28:06;8.20;99.90
8792;DHT22;4432;50.890;4.744;2023-04-15T05:30:32;8.20;99.90
8792;DHT22;4432;50.890;4.744;2023-04-15T05:32:58;8.30;99.90
8792;DHT22;4432;50.890;4.744;2023-04-15T05:35:23;8.30;99.90
8792;DHT22;4432;50.890;4.744;2023-04-15T05:37:49;8.30;99.90
8792;DHT22;4432;50.890;4.744;2023-04-15T05:40:15;8.30;99.90
8792;DHT22;4432;50.890;4.744;2023-04-15T05:42:41;8.30;99.90
8792;DHT22;4432;50.890;4.744;2023-04-15T05:45:07;8.30;99.90
8792;DHT22;4432;50.890;4.744;2023-04-15T05:47:36;8.40;99.90
8792;DHT22;4432;50.890;4.744;2023-04-15T05:50:03;8.40;99.90
8792;DHT22;4432;50.890;4.744;2023-04-15T05:52:30;8.40;99.90
8792;DHT22;4432;50.890;4.744;2023-04-15T05:54:56;8.40;99.90
8792;DHT22;4432;50.890;4.744;2023-04-15T05:57:22;8.50;99.90
8792;DHT22;4432;50.890;4.744;2023-04-15T05:59:48;8.50;99.90
8792;DHT22;4432;50.890;4.744;2023-04-15T06:02:13;8.50;99.90
8792;DHT22;4432;50.890;4.744;2023-04-15T06:04:39;8.60;99.90
8792;DHT22;4432;50.890;4.744;2023-04-15T06:07:05;8.60;99.90
8792;DHT22;4432;50.890;4.744;2023-04-15T06:09:31;8.80;99.90
8792;DHT22;4432;50.890;4.744;2023-04-15T06:11:58;8.90;99.90
8792;DHT22;4432;50.890;4.744;2023-04-15T06:14:23;9.00;99.90
8792;DHT22;4432;50.890;4.744;2023-04-15T06:16:49;9.10;99.90
8792;DHT22;4432;50.890;4.744;2023-04-15T06:19:15;9.20;99.90
8792;DHT22;4432;50.890;4.744;2023-04-15T06:21:41;9.30;99.90
8792;DHT22;4432;50.890;4.744;2023-04-15T06:24:06;9.30;99.90
8792;DHT22;4432;50.890;4.744;2023-04-15T06:26:32;9.30;99.90
8792;DHT22;4432;50.890;4.744;2023-04-15T06:28:58;9.40;99.90
8792;DHT22;4432;50.890;4.744;2023-04-15T06:31:23;9.50;99.90
8792;DHT22;4432;50.890;4.744;2023-04-15T06:33:49;9.60;99.90
8792;DHT22;4432;50.890;4.744;2023-04-15T06:36:15;9.70;99.90
8792;DHT22;4432;50.890;4.744;2023-04-15T06:38:40;9.90;99.90
8792;DHT22;4432;50.890;4.744;2023-04-15T06:41:06;10.00;99.90
8792;DHT22;4432;50.890;4.744;2023-04-15T06:43:32;10.20;99.90
8792;DHT22;4432;50.890;4.744;2023-04-15T06:45:58;10.40;99.90
8792;DHT22;4432;50.890;4.744;2023-04-15T06:48:24;10.70;99.90
8792;DHT22;4432;50.890;4.744;2023-04-15T06:50:49;10.90;99.90
8792;DHT22;4432;50.890;4.744;2023-04-15T06:53:15;11.10;99.90
8792;DHT22;4432;50.890;4.744;2023-04-15T06:55:41;11.40;99.90
8792;DHT22;4432;50.890;4.744;2023-04-15T06:58:07;11.70;99.90
8792;DHT22;4432;50.890;4.744;2023-04-15T07:00:33;11.90;99.90
8792;DHT22;4432;50.890;4.744;2023-04-15T07:02:59;11.90;99.90
8792;DHT22;4432;50.890;4.744;2023-04-15T07:05:29;11.90;99.90
8792;DHT22;4432;50.890;4.744;2023-04-15T07:07:55;11.80;99.90
8792;DHT22;4432;50.890;4.744;2023-04-15T07:10:21;11.80;99.90
8792;DHT22;4432;50.890;4.744;2023-04-15T07:12:48;12.00;99.90
8792;DHT22;4432;50.890;4.744;2023-04-15T07:15:15;12.30;99.90
8792;DHT22;4432;50.890;4.744;2023-04-15T07:17:41;12.60;99.90
8792;DHT22;4432;50.890;4.744;2023-04-15T07:20:11;13.10;99.90
8792;DHT22;4432;50.890;4.744;2023-04-15T07:22:37;13.70;99.90
8792;DHT22;4432;50.890;4.744;2023-04-15T07:25:03;13.80;99.90
8792;DHT22;4432;50.890;4.744;2023-04-15T07:27:29;13.60;99.90
8792;DHT22;4432;50.890;4.744;2023-04-15T07:29:55;13.60;99.90
8792;DHT22;4432;50.890;4.744;2023-04-15T07:32:21;13.50;99.90
8792;DHT22;4432;50.890;4.744;2023-04-15T07:34:47;13.50;99.90
8792;DHT22;4432;50.890;4.744;2023-04-15T07:37:13;13.80;99.90
8792;DHT22;4432;50.890;4.744;2023-04-15T07:39:39;14.00;99.90
8792;DHT22;4432;50.890;4.744;2023-04-15T07:42:05;13.70;99.90
8792;DHT22;4432;50.890;4.744;2023-04-15T07:44:30;13.40;99.90
8792;DHT22;4432;50.890;4.744;2023-04-15T07:46:56;13.20;99.90
8792;DHT22;4432;50.890;4.744;2023-04-15T07:49:22;13.20;99.90
8792;DHT22;4432;50.890;4.744;2023-04-15T07:51:48;13.30;99.90
8792;DHT22;4432;50.890;4.744;2023-04-15T07:54:14;13.60;99.90
8792;DHT22;4432;50.890;4.744;2023-04-15T07:56:40;13.70;99.90
8792;DHT22;4432;50.890;4.744;2023-04-15T07:59:06;13.90;99.90
8792;DHT22;4432;50.890;4.744;2023-04-15T08:01:34;13.80;99.90
8792;DHT22;4432;50.890;4.744;2023-04-15T08:04:00;14.00;99.90
8792;DHT22;4432;50.890;4.744;2023-04-15T08:06:25;13.90;99.90
8792;DHT22;4432;50.890;4.744;2023-04-15T08:08:52;14.10;99.90
8792;DHT22;4432;50.890;4.744;2023-04-15T08:11:19;14.40;99.90
8792;DHT22;4432;50.890;4.744;2023-04-15T08:13:46;14.50;99.90
8792;DHT22;4432;50.890;4.744;2023-04-15T08:16:25;14.60;99.90
8792;DHT22;4432;50.890;4.744;2023-04-15T08:18:55;14.80;99.90
8792;DHT22;4432;50.890;4.744;2023-04-15T08:21:22;15.00;99.90
8792;DHT22;4432;50.890;4.744;2023-04-15T08:23:49;15.10;99.90
8792;DHT22;4432;50.890;4.744;2023-04-15T08:26:16;14.70;99.90
8792;DHT22;4432;50.890;4.744;2023-04-15T08:28:43;14.70;99.90
8792;DHT22;4432;50.890;4.744;2023-04-15T08:31:09;14.80;99.90
8792;DHT22;4432;50.890;4.744;2023-04-15T08:33:35;14.70;99.90
8792;DHT22;4432;50.890;4.744;2023-04-15T08:36:01;14.40;99.90
8792;DHT22;4432;50.890;4.744;2023-04-15T08:38:27;14.30;99.90
8792;DHT22;4432;50.890;4.744;2023-04-15T08:40:54;14.50;99.90
8792;DHT22;4432;50.890;4.744;2023-04-15T08:43:22;15.20;99.90
8792;DHT22;4432;50.890;4.744;2023-04-15T08:45:53;15.10;99.90
8792;DHT22;4432;50.890;4.744;2023-04-15T08:48:20;15.40;99.90
8792;DHT22;4432;50.890;4.744;2023-04-15T08:50:47;15.80;99.90
8792;DHT22;4432;50.890;4.744;2023-04-15T08:53:14;16.40;99.30
8792;DHT22;4432;50.890;4.744;2023-04-15T08:55:45;16.40;97.90
8792;DHT22;4432;50.890;4.744;2023-04-15T08:58:12;16.30;97.40
8792;DHT22;4432;50.890;4.744;2023-04-15T09:00:39;16.20;98.10
8792;DHT22;4432;50.890;4.744;2023-04-15T09:03:05;16.50;97.20
8792;DHT22;4432;50.890;4.744;2023-04-15T09:05:32;16.80;96.10
8792;DHT22;4432;50.890;4.744;2023-04-15T09:07:59;16.70;97.90
8792;DHT22;4432;50.890;4.744;2023-04-15T09:10:25;17.10;97.00
8792;DHT22;4432;50.890;4.744;2023-04-15T09:12:51;17.40;96.30
8792;DHT22;4432;50.890;4.744;2023-04-15T09:15:17;17.30;96.80
8792;DHT22;4432;50.890;4.744;2023-04-15T09:17:43;17.30;96.20
8792;DHT22;4432;50.890;4.744;2023-04-15T09:20:11;17.10;94.70
8792;DHT22;4432;50.890;4.744;2023-04-15T09:22:39;16.90;96.70
8792;DHT22;4432;50.890;4.744;2023-04-15T09:25:25;17.20;95.60
8792;DHT22;4432;50.890;4.744;2023-04-15T09:27:57;17.20;95.70
8792;DHT22;4432;50.890;4.744;2023-04-15T09:30:24;17.00;95.90
8792;DHT22;4432;50.890;4.744;2023-04-15T09:32:53;16.60;97.30
8792;DHT22;4432;50.890;4.744;2023-04-15T09:35:20;16.10;95.40
8792;DHT22;4432;50.890;4.744;2023-04-15T09:37:47;16.10;95.60
8792;DHT22;4432;50.890;4.744;2023-04-15T09:40:13;15.90;95.70
8792;DHT22;4432;50.890;4.744;2023-04-15T09:42:55;15.80;97.30
8792;DHT22;4432;50.890;4.744;2023-04-15T09:45:22;16.40;98.00
8792;DHT22;4432;50.890;4.744;2023-04-15T09:47:48;16.50;95.10
8792;DHT22;4432;50.890;4.744;2023-04-15T09:50:16;16.20;95.90
8792;DHT22;4432;50.890;4.744;2023-04-15T09:52:42;16.00;95.90
8792;DHT22;4432;50.890;4.744;2023-04-15T09:55:10;15.90;95.10
8792;DHT22;4432;50.890;4.744;2023-04-15T09:57:37;16.00;95.30
8792;DHT22;4432;50.890;4.744;2023-04-15T10:00:04;15.90;93.70
8792;DHT22;4432;50.890;4.744;2023-04-15T10:02:31;15.70;95.40
8792;DHT22;4432;50.890;4.744;2023-04-15T10:04:58;15.60;94.80
8792;DHT22;4432;50.890;4.744;2023-04-15T10:07:25;15.90;94.80
8792;DHT22;4432;50.890;4.744;2023-04-15T10:09:50;15.70;94.80
8792;DHT22;4432;50.890;4.744;2023-04-15T10:12:18;15.30;95.20
8792;DHT22;4432;50.890;4.744;2023-04-15T10:14:49;15.20;95.20
8792;DHT22;4432;50.890;4.744;2023-04-15T10:17:17;15.30;95.80
8792;DHT22;4432;50.890;4.744;2023-04-15T10:19:46;15.40;93.40
8792;DHT22;4432;50.890;4.744;2023-04-15T10:22:13;15.30;95.20
8792;DHT22;4432;50.890;4.744;2023-04-15T10:24:39;15.50;96.20
8792;DHT22;4432;50.890;4.744;2023-04-15T10:27:06;15.20;88.10
8792;DHT22;4432;50.890;4.744;2023-04-15T10:29:33;15.30;82.60
8792;DHT22;4432;50.890;4.744;2023-04-15T10:31:59;15.50;91.50
8792;DHT22;4432;50.890;4.744;2023-04-15T10:34:26;15.70;84.80
8792;DHT22;4432;50.890;4.744;2023-04-15T10:36:57;15.70;91.60
8792;DHT22;4432;50.890;4.744;2023-04-15T10:39:49;15.80;90.80
8792;DHT22;4432;50.890;4.744;2023-04-15T10:42:17;15.80;90.70
8792;DHT22;4432;50.890;4.744;2023-04-15T10:44:50;15.70;91.00
8792;DHT22;4432;50.890;4.744;2023-04-15T10:47:21;15.40;83.50
8792;DHT22;4432;50.890;4.744;2023-04-15T10:49:51;15.30;78.40
8792;DHT22;4432;50.890;4.744;2023-04-15T10:52:28;15.60;79.30
8792;DHT22;4432;50.890;4.744;2023-04-15T10:57:33;16.20;82.40
8792;DHT22;4432;50.890;4.744;2023-04-15T11:00:15;16.40;81.90
8792;DHT22;4432;50.890;4.744;2023-04-15T11:02:51;16.30;76.10
8792;DHT22;4432;50.890;4.744;2023-04-15T11:05:17;15.70;68.90
8792;DHT22;4432;50.890;4.744;2023-04-15T11:12:43;15.80;64.70
8792;DHT22;4432;50.890;4.744;2023-04-15T11:15:29;15.60;69.90
8792;DHT22;4432;50.890;4.744;2023-04-15T11:18:17;15.70;69.20
8792;DHT22;4432;50.890;4.744;2023-04-15T11:20:47;15.70;56.60
8792;DHT22;4432;50.890;4.744;2023-04-15T11:23:17;15.80;53.80
8792;DHT22;4432;50.890;4.744;2023-04-15T11:25:43;15.90;57.20
8792;DHT22;4432;50.890;4.744;2023-04-15T11:28:10;16.10;56.10
8792;DHT22;4432;50.890;4.744;2023-04-15T11:30:37;16.20;54.90
8792;DHT22;4432;50.890;4.744;2023-04-15T11:33:08;15.80;49.40
8792;DHT22;4432;50.890;4.744;2023-04-15T11:35:34;15.50;52.20
8792;DHT22;4432;50.890;4.744;2023-04-15T11:38:04;15.50;53.50
8792;DHT22;4432;50.890;4.744;2023-04-15T11:40:33;15.80;51.40
8792;DHT22;4432;50.890;4.744;2023-04-15T11:43:23;15.70;48.10
8792;DHT22;4432;50.890;4.744;2023-04-15T11:48:17;15.90;45.60
8792;DHT22;4432;50.890;4.744;2023-04-15T11:50:43;16.00;46.00
8792;DHT22;4432;50.890;4.744;2023-04-15T11:53:10;15.90;47.00
8792;DHT22;4432;50.890;4.744;2023-04-15T11:55:50;16.00;49.00
8792;DHT22;4432;50.890;4.744;2023-04-15T12:00:57;16.30;49.00
8792;DHT22;4432;50.890;4.744;2023-04-15T12:03:29;16.30;45.80
8792;DHT22;4432;50.890;4.744;2023-04-15T12:11:44;16.20;42.30
8792;DHT22;4432;50.890;4.744;2023-04-15T12:16:44;16.20;36.50
8792;DHT22;4432;50.890;4.744;2023-04-15T12:19:12;16.20;38.70
8792;DHT22;4432;50.890;4.744;2023-04-15T12:21:43;16.30;38.80
8792;DHT22;4432;50.890;4.744;2023-04-15T12:24:10;16.40;36.70
8792;DHT22;4432;50.890;4.744;2023-04-15T12:26:42;16.50;42.50
8792;DHT22;4432;50.890;4.744;2023-04-15T12:29:08;16.70;34.50
8792;DHT22;4432;50.890;4.744;2023-04-15T12:31:35;16.70;40.30
8792;DHT22;4432;50.890;4.744;2023-04-15T12:34:06;16.70;40.00
8792;DHT22;4432;50.890;4.744;2023-04-15T12:36:33;16.50;36.10
8792;DHT22;4432;50.890;4.744;2023-04-15T12:39:04;16.40;31.30
8792;DHT22;4432;50.890;4.744;2023-04-15T12:41:33;16.20;30.20
8792;DHT22;4432;50.890;4.744;2023-04-15T12:43:59;15.90;29.20
8792;DHT22;4432;50.890;4.744;2023-04-15T12:46:26;16.10;34.20
8792;DHT22;4432;50.890;4.744;2023-04-15T12:48:52;16.40;29.60
8792;DHT22;4432;50.890;4.744;2023-04-15T12:51:18;16.40;33.70
8792;DHT22;4432;50.890;4.744;2023-04-15T12:53:44;16.10;23.30
8792;DHT22;4432;50.890;4.744;2023-04-15T12:56:09;15.90;27.60
8792;DHT22;4432;50.890;4.744;2023-04-15T12:58:35;16.10;33.40
8792;DHT22;4432;50.890;4.744;2023-04-15T13:01:01;16.30;32.40
8792;DHT22;4432;50.890;4.744;2023-04-15T13:03:27;16.40;32.70
8792;DHT22;4432;50.890;4.744;2023-04-15T13:05:53;16.50;32.60
8792;DHT22;4432;50.890;4.744;2023-04-15T13:08:19;16.30;30.90
8792;DHT22;4432;50.890;4.744;2023-04-15T13:10:45;16.30;27.50
8792;DHT22;4432;50.890;4.744;2023-04-15T13:13:11;16.30;31.70
8792;DHT22;4432;50.890;4.744;2023-04-15T13:15:36;16.40;36.50
8792;DHT22;4432;50.890;4.744;2023-04-15T13:18:05;16.50;33.80
8792;DHT22;4432;50.890;4.744;2023-04-15T13:20:31;16.50;34.10
8792;DHT22;4432;50.890;4.744;2023-04-15T13:22:57;16.50;30.80
8792;DHT22;4432;50.890;4.744;2023-04-15T13:25:22;16.70;28.50
8792;DHT22;4432;50.890;4.744;2023-04-15T13:27:48;16.60;32.90
8792;DHT22;4432;50.890;4.744;2023-04-15T13:30:14;16.40;31.50
8792;DHT22;4432;50.890;4.744;2023-04-15T13:32:40;16.10;33.20
8792;DHT22;4432;50.890;4.744;2023-04-15T13:35:06;16.20;35.60
8792;DHT22;4432;50.890;4.744;2023-04-15T13:37:32;16.30;33.70
8792;DHT22;4432;50.890;4.744;2023-04-15T13:39:58;16.40;31.30
8792;DHT22;4432;50.890;4.744;2023-04-15T13:42:23;15.90;33.80
8792;DHT22;4432;50.890;4.744;2023-04-15T13:44:50;15.90;37.00
8792;DHT22;4432;50.890;4.744;2023-04-15T13:47:18;15.90;37.70
8792;DHT22;4432;50.890;4.744;2023-04-15T13:49:45;16.10;36.80
8792;DHT22;4432;50.890;4.744;2023-04-15T13:52:11;16.00;36.50
8792;DHT22;4432;50.890;4.744;2023-04-15T13:54:37;16.00;37.00
8792;DHT22;4432;50.890;4.744;2023-04-15T13:57:05;16.00;38.50
8792;DHT22;4432;50.890;4.744;2023-04-15T13:59:34;15.60;36.80
8792;DHT22;4432;50.890;4.744;2023-04-15T14:02:01;15.50;39.80
8792;DHT22;4432;50.890;4.744;2023-04-15T14:04:26;15.60;44.00
8792;DHT22;4432;50.890;4.744;2023-04-15T14:06:52;15.80;44.40
8792;DHT22;4432;50.890;4.744;2023-04-15T14:09:18;15.70;46.20
8792;DHT22;4432;50.890;4.744;2023-04-15T14:11:43;15.90;46.50
8792;DHT22;4432;50.890;4.744;2023-04-15T14:14:09;16.10;45.60
8792;DHT22;4432;50.890;4.744;2023-04-15T14:16:35;16.10;45.00
8792;DHT22;4432;50.890;4.744;2023-04-15T14:19:01;16.00;42.10
8792;DHT22;4432;50.890;4.744;2023-04-15T14:21:27;15.90;44.00
8792;DHT22;4432;50.890;4.744;2023-04-15T14:23:54;15.70;42.20
8792;DHT22;4432;50.890;4.744;2023-04-15T14:26:20;15.80;45.00
8792;DHT22;4432;50.890;4.744;2023-04-15T14:28:45;16.00;48.00
8792;DHT22;4432;50.890;4.744;2023-04-15T14:31:12;16.30;45.00
8792;DHT22;4432;50.890;4.744;2023-04-15T14:33:38;16.20;47.00
8792;DHT22;4432;50.890;4.744;2023-04-15T14:36:06;16.00;45.50
8792;DHT22;4432;50.890;4.744;2023-04-15T14:38:33;16.00;48.30
8792;DHT22;4432;50.890;4.744;2023-04-15T14:41:03;16.00;47.90
8792;DHT22;4432;50.890;4.744;2023-04-15T14:43:29;15.70;47.90
8792;DHT22;4432;50.890;4.744;2023-04-15T14:45:55;15.80;51.20
8792;DHT22;4432;50.890;4.744;2023-04-15T14:48:20;15.90;53.50
8792;DHT22;4432;50.890;4.744;2023-04-15T14:50:46;15.90;50.90
8792;DHT22;4432;50.890;4.744;2023-04-15T14:53:12;15.90;52.90
8792;DHT22;4432;50.890;4.744;2023-04-15T14:55:38;16.00;52.20
8792;DHT22;4432;50.890;4.744;2023-04-15T14:58:04;16.10;49.30
8792;DHT22;4432;50.890;4.744;2023-04-15T15:00:30;16.00;54.60
8792;DHT22;4432;50.890;4.744;2023-04-15T15:02:56;16.10;52.30
8792;DHT22;4432;50.890;4.744;2023-04-15T15:05:22;16.00;45.50
8792;DHT22;4432;50.890;4.744;2023-04-15T15:07:48;15.80;46.00
8792;DHT22;4432;50.890;4.744;2023-04-15T15:10:14;15.80;43.10
8792;DHT22;4432;50.890;4.744;2023-04-15T15:12:39;15.60;43.20
8792;DHT22;4432;50.890;4.744;2023-04-15T15:15:05;15.70;42.50
8792;DHT22;4432;50.890;4.744;2023-04-15T15:17:31;15.80;46.10
8792;DHT22;4432;50.890;4.744;2023-04-15T15:19:57;15.80;44.80
8792;DHT22;4432;50.890;4.744;2023-04-15T15:22:23;15.50;42.90
8792;DHT22;4432;50.890;4.744;2023-04-15T15:24:50;15.40;44.90
8792;DHT22;4432;50.890;4.744;2023-04-15T15:27:16;15.30;50.10
8792;DHT22;4432;50.890;4.744;2023-04-15T15:29:42;15.20;48.50
8792;DHT22;4432;50.890;4.744;2023-04-15T15:32:07;15.10;49.30
8792;DHT22;4432;50.890;4.744;2023-04-15T15:34:33;15.10;50.30
8792;DHT22;4432;50.890;4.744;2023-04-15T15:36:59;15.10;48.90
8792;DHT22;4432;50.890;4.744;2023-04-15T15:39:25;15.10;50.50
8792;DHT22;4432;50.890;4.744;2023-04-15T15:41:52;15.20;46.20
8792;DHT22;4432;50.890;4.744;2023-04-15T15:44:17;15.10;49.10
8792;DHT22;4432;50.890;4.744;2023-04-15T15:46:43;15.10;50.00
8792;DHT22;4432;50.890;4.744;2023-04-15T15:49:09;15.00;52.30
8792;DHT22;4432;50.890;4.744;2023-04-15T15:51:35;14.90;54.10
8792;DHT22;4432;50.890;4.744;2023-04-15T15:54:01;14.80;54.60
8792;DHT22;4432;50.890;4.744;2023-04-15T15:56:27;14.80;53.00
8792;DHT22;4432;50.890;4.744;2023-04-15T15:58:52;14.90;53.40
8792;DHT22;4432;50.890;4.744;2023-04-15T16:01:18;14.90;55.40
8792;DHT22;4432;50.890;4.744;2023-04-15T16:03:44;14.90;54.50
8792;DHT22;4432;50.890;4.744;2023-04-15T16:06:10;14.80;55.30
8792;DHT22;4432;50.890;4.744;2023-04-15T16:08:42;14.80;54.60
8792;DHT22;4432;50.890;4.744;2023-04-15T16:11:13;14.80;55.80
8792;DHT22;4432;50.890;4.744;2023-04-15T16:13:39;14.90;56.40
8792;DHT22;4432;50.890;4.744;2023-04-15T16:16:05;15.00;57.00
8792;DHT22;4432;50.890;4.744;2023-04-15T16:18:31;15.10;56.70
8792;DHT22;4432;50.890;4.744;2023-04-15T16:20:57;15.00;55.50
8792;DHT22;4432;50.890;4.744;2023-04-15T16:23:23;14.80;55.10
8792;DHT22;4432;50.890;4.744;2023-04-15T16:25:49;14.70;56.00